Time;durP1;ratioP1;P1;durP2;ratioP2;P2;SDS_P1;SDS_P2;PMS_P1;PMS_P2;Temp;Humidity;BMP_temperature;BMP_pressure;BME280_temperature;BME280_humidity;BME280_pressure;Samples;Min_cycle;Max_cycle;Signal;HPM_P1;HPM_P2
2022/01/21 00:00:25;;;;;;;40.23;26.63;;;;;;;1.97;67.16;99468.66;4994266;28;20197;-55
2022/01/21 00:02:52;;;;;;;40.20;26.90;;;;;;;2.08;66.66;99476.00;4994178;28;20201;-55
2022/01/21 00:05:21;;;;;;;45.63;28.47;;;;;;;2.11;66.84;99465.16;5004636;28;20718;-55
2022/01/21 00:07:48;;;;;;;47.07;28.90;;;;;;;2.20;66.46;99476.59;5011035;28;20205;-55
2022/01/21 00:10:15;;;;;;;44.73;28.80;;;;;;;2.19;65.76;99479.06;5013682;28;20194;-55
2022/01/21 00:12:42;;;;;;;53.30;32.20;;;;;;;2.18;66.39;99479.84;5013655;28;20200;-55
2022/01/21 00:15:11;;;;;;;60.17;36.40;;;;;;;2.19;66.48;99479.94;5013710;28;20280;-55
2022/01/21 00:17:38;;;;;;;71.10;39.67;;;;;;;2.18;66.26;99480.72;5013627;28;20680;-56
2022/01/21 00:31:06;;;;;;;97.43;55.87;;;;;;;2.23;66.21;99483.47;5013431;28;20568;-54
2022/01/21 00:33:33;;;;;;;92.37;56.47;;;;;;;2.26;66.34;99466.75;5013377;28;20210;-54
2022/01/21 00:36:00;;;;;;;92.00;55.13;;;;;;;2.32;66.24;99477.19;5012370;28;20228;-54
2022/01/21 00:38:29;;;;;;;92.33;56.37;;;;;;;2.39;65.97;99470.72;5013237;28;20201;-54
2022/01/21 00:40:59;;;;;;;90.80;55.70;;;;;;;2.41;66.06;99461.56;5013152;28;21053;-54
2022/01/21 00:43:31;;;;;;;100.65;59.00;;;;;;;2.44;65.71;99448.16;5011989;28;20450;-59
2022/01/21 00:45:58;;;;;;;104.33;56.97;;;;;;;2.46;65.78;99451.63;5009969;28;20213;-58
2022/01/21 00:48:27;;;;;;;94.23;54.63;;;;;;;2.49;65.33;99452.63;5009628;28;20193;-58
2022/01/21 00:50:54;;;;;;;89.30;54.80;;;;;;;2.54;65.46;99451.19;5012240;28;20704;-58
2022/01/21 00:53:21;;;;;;;87.77;52.87;;;;;;;2.38;65.66;99436.94;5012294;28;20190;-58
2022/01/21 00:55:48;;;;;;;90.30;54.40;;;;;;;2.36;66.26;99442.72;5012093;28;20186;-58
2022/01/21 00:58:15;;;;;;;82.33;51.53;;;;;;;2.25;66.78;99442.19;5009766;28;20201;-58
2022/01/21 01:00:42;;;;;;;88.27;48.40;;;;;;;2.05;66.91;99434.44;5012201;28;20584;-58
2022/01/21 01:03:10;;;;;;;81.73;45.73;;;;;;;1.73;68.68;99435.41;5012160;28;20668;-58
2022/01/21 01:05:38;;;;;;;74.80;45.43;;;;;;;1.66;69.78;99424.09;5009478;28;20218;-58
2022/01/21 01:08:06;;;;;;;70.50;44.23;;;;;;;1.64;69.88;99424.81;5011675;28;20208;-58
2022/01/21 01:10:44;;;;;;;71.00;42.00;;;;;;;1.59;70.03;99436.38;5010059;28;20247;-55
2022/01/21 01:21:26;;;;;;;54.50;32.80;;;;;;;1.41;71.00;99432.91;5012431;28;20583;-55
2022/01/21 01:27:34;;;;;;;49.80;32.53;;;;;;;1.42;71.39;99429.59;5012428;28;20186;-54
2022/01/21 01:29:33;;;;;;;53.90;33.60;;;;;;;1.44;70.74;99413.69;5012321;28;20184;-55
2022/01/21 01:32:00;;;;;;;56.00;34.43;;;;;;;1.46;70.30;99409.56;5012041;28;20189;-54
2022/01/21 01:34:27;;;;;;;55.43;32.70;;;;;;;1.54;70.12;99430.22;5012106;28;20194;-54
2022/01/21 01:36:58;;;;;;;51.30;31.87;;;;;;;1.53;69.77;99426.81;5012020;28;20200;-55
2022/01/21 01:39:33;;;;;;;51.60;32.77;;;;;;;1.51;70.19;99423.31;5011965;28;20672;-55
2022/01/21 01:42:25;;;;;;;56.50;32.63;;;;;;;1.71;70.03;99462.28;5012014;28;20225;-54
2022/01/21 01:50:41;;;;;;;48.97;31.80;;;;;;;1.99;68.54;99473.00;4999414;28;20197;-55
2022/01/21 01:53:10;;;;;;;64.23;35.23;;;;;;;2.06;68.46;99475.03;5011755;28;20288;-55
2022/01/21 01:55:37;;;;;;;58.50;33.30;;;;;;;2.13;68.59;99459.34;5011733;28;20194;-55
2022/01/21 01:58:04;;;;;;;47.97;30.90;;;;;;;2.10;68.04;99451.59;5011879;28;20200;-55
2022/01/21 02:00:32;;;;;;;45.27;30.13;;;;;;;2.12;67.51;99450.00;5011654;28;20194;-55
2022/01/21 02:03:05;;;;;;;49.73;29.10;;;;;;;2.12;67.69;99465.22;5011842;28;20285;-55
2022/01/21 02:05:32;;;;;;;41.83;28.50;;;;;;;2.14;67.44;99463.59;5011546;28;20217;-55
2022/01/21 02:07:59;;;;;;;38.30;26.43;;;;;;;2.07;67.96;99463.25;5010804;28;20320;-55
2022/01/21 02:10:28;;;;;;;43.87;27.97;;;;;;;2.01;67.83;99470.53;5011427;28;20204;-55
2022/01/21 02:13:02;;;;;;;50.13;26.47;;;;;;;1.94;68.70;99479.53;5011444;28;20201;-55
2022/01/21 02:15:29;;;;;;;39.60;25.57;;;;;;;2.00;68.50;99479.84;5011598;28;20631;-54
2022/01/21 02:23:30;;;;;;;37.97;23.07;;;;;;;1.89;69.08;99463.22;5002526;28;20193;-54
2022/01/21 02:25:57;;;;;;;36.57;23.50;;;;;;;1.99;68.82;99482.28;5011239;28;20221;-55
2022/01/21 02:28:24;;;;;;;36.63;23.57;;;;;;;1.99;69.21;99479.75;5011357;28;20289;-55
2022/01/21 02:30:55;;;;;;;36.63;22.50;;;;;;;2.00;69.56;99494.16;5011263;28;20276;-55
2022/01/21 02:33:23;;;;;;;32.13;22.07;;;;;;;2.02;69.85;99490.03;5011035;28;20212;-55
2022/01/21 02:35:50;;;;;;;32.90;22.43;;;;;;;2.11;69.53;99476.16;5011075;28;20664;-58
2022/01/21 02:38:17;;;;;;;38.40;23.37;;;;;;;2.14;69.56;99472.91;5010873;28;20276;-59
2022/01/21 02:40:46;;;;;;;39.20;23.83;;;;;;;2.21;68.75;99480.00;5010930;28;20225;-59
2022/01/21 02:43:14;;;;;;;35.47;24.40;;;;;;;2.25;68.59;99490.34;5010925;28;20197;-59
2022/01/21 02:45:45;;;;;;;39.83;23.60;;;;;;;2.23;67.64;99486.00;5010776;28;20282;-58
2022/01/21 02:48:12;;;;;;;37.47;24.40;;;;;;;2.23;67.17;99479.28;5010805;28;20193;-59
2022/01/21 02:50:39;;;;;;;37.00;23.67;;;;;;;2.29;67.47;99486.31;5010913;28;20197;-59
2022/01/21 02:53:12;;;;;;;40.33;25.17;;;;;;;2.29;66.68;99478.69;5010931;28;20284;-59
2022/01/21 02:55:39;;;;;;;36.80;25.07;;;;;;;2.32;66.79;99478.84;5010698;28;20268;-58
2022/01/21 02:58:08;;;;;;;43.43;26.13;;;;;;;2.35;66.74;99467.19;5010423;28;20632;-59
2022/01/21 03:00:35;;;;;;;43.67;27.67;;;;;;;2.39;66.59;99460.59;5010532;28;20198;-59
2022/01/21 03:03:04;;;;;;;40.17;27.63;;;;;;;2.47;66.20;99458.44;5010605;28;20982;-59
2022/01/21 03:05:34;;;;;;;36.87;25.37;;;;;;;2.52;66.07;99457.84;5010496;28;20221;-58
2022/01/21 03:08:01;;;;;;;40.50;25.43;;;;;;;2.51;66.08;99443.44;5010513;28;20280;-58
2022/01/21 03:10:28;;;;;;;40.07;26.70;;;;;;;2.56;66.30;99441.09;5010871;28;20190;-59
2022/01/21 03:12:55;;;;;;;32.97;24.07;;;;;;;2.62;66.05;99439.72;5010462;28;20205;-59
2022/01/21 03:15:23;;;;;;;39.60;26.20;;;;;;;2.78;65.41;99448.91;5010717;28;20198;-54
2022/01/21 03:17:50;;;;;;;40.57;24.43;;;;;;;2.84;64.95;99441.56;5010471;28;20198;-55
2022/01/21 03:20:17;;;;;;;35.40;24.87;;;;;;;2.88;64.89;99441.78;5010579;28;20221;-54
2022/01/21 03:22:44;;;;;;;43.03;24.50;;;;;;;2.89;64.23;99440.97;5010491;28;20193;-55
2022/01/21 03:25:11;;;;;;;48.07;25.47;;;;;;;3.01;64.53;99449.94;5010310;28;20699;-55
2022/01/21 03:27:38;;;;;;;45.87;25.60;;;;;;;3.08;63.34;99452.81;5010443;28;20204;-55
2022/01/21 03:30:08;;;;;;;34.83;23.53;;;;;;;3.10;63.24;99440.22;5010337;28;20292;-54
2022/01/21 03:32:37;;;;;;;34.97;23.77;;;;;;;3.07;63.17;99445.16;5010560;28;20280;-55
2022/01/21 03:35:04;;;;;;;38.88;27.15;;;;;;;3.10;63.64;99441.09;5010027;28;20434;-54
2022/01/21 03:37:32;;;;;;;42.97;26.47;;;;;;;3.14;63.76;99439.53;5010297;28;20197;-55
2022/01/21 03:39:58;;;;;;;38.93;25.60;;;;;;;3.23;63.20;99428.13;5010028;28;20197;-54
2022/01/21 03:42:25;;;;;;;38.40;26.07;;;;;;;3.27;63.19;99426.59;5010368;28;20196;-55
2022/01/21 03:44:52;;;;;;;35.53;23.13;;;;;;;3.33;62.41;99435.34;5010302;28;20684;-55
2022/01/21 03:47:19;;;;;;;39.93;23.70;;;;;;;3.32;62.42;99453.06;5010232;28;20225;-55
2022/01/21 03:49:54;;;;;;;37.67;24.17;;;;;;;3.29;62.54;99448.72;5010390;28;20554;-59
2022/01/21 03:52:21;;;;;;;35.30;22.57;;;;;;;3.34;61.89;99451.44;5010243;28;20193;-59
2022/01/21 03:54:48;;;;;;;36.83;22.53;;;;;;;3.42;61.25;99445.03;5010186;28;20234;-59
2022/01/21 03:57:15;;;;;;;28.30;20.43;;;;;;;3.56;60.35;99441.41;5010175;28;20695;-59
2022/01/21 03:59:42;;;;;;;29.30;19.53;;;;;;;3.66;59.49;99441.00;5010290;28;20201;-59
2022/01/21 04:02:09;;;;;;;33.20;19.33;;;;;;;3.78;58.12;99448.25;5010164;28;20584;-59
2022/01/21 04:04:36;;;;;;;29.93;18.43;;;;;;;3.85;58.08;99440.06;5010342;28;20372;-59
2022/01/21 04:07:07;;;;;;;26.70;17.77;;;;;;;3.95;57.57;99445.63;5009955;28;20308;-59
2022/01/21 04:09:34;;;;;;;28.90;18.63;;;;;;;4.09;56.88;99441.94;5010012;28;20198;-60
2022/01/21 04:12:01;;;;;;;31.30;19.23;;;;;;;4.20;56.89;99451.72;5010103;28;20201;-59
2022/01/21 04:14:31;;;;;;;29.37;17.97;;;;;;;4.26;57.13;99449.41;5009978;28;20288;-59
2022/01/21 04:16:58;;;;;;;37.07;23.77;;;;;;;4.22;57.89;99443.34;5009923;28;20205;-59
2022/01/21 04:19:26;;;;;;;37.50;24.30;;;;;;;4.22;58.98;99432.28;5010162;28;20199;-59
2022/01/21 04:21:53;;;;;;;37.50;26.17;;;;;;;4.13;59.80;99420.06;5009794;28;20205;-59
2022/01/21 04:24:22;;;;;;;40.37;26.77;;;;;;;4.01;60.64;99422.97;5010083;28;20198;-58
2022/01/21 04:26:48;;;;;;;52.13;29.37;;;;;;;3.92;60.50;99412.47;5009644;28;20218;-59
2022/01/21 04:29:15;;;;;;;47.67;29.17;;;;;;;3.93;61.64;99406.56;5009906;28;20198;-58
2022/01/21 04:31:42;;;;;;;42.37;28.77;;;;;;;3.86;61.16;99402.03;5013298;28;20197;-58
2022/01/21 04:34:09;;;;;;;42.33;30.30;;;;;;;3.84;61.81;99393.50;5013249;28;20759;-59
2022/01/21 04:36:36;;;;;;;50.87;32.03;;;;;;;3.81;62.09;99395.03;5012844;28;20201;-59
2022/01/21 04:39:06;;;;;;;54.75;36.75;;;;;;;3.74;62.98;99403.19;5012737;28;20458;-58
2022/01/21 04:47:12;;;;;;;54.50;31.10;;;;;;;3.71;63.20;99418.34;5012943;28;20231;-59
2022/01/21 04:47:18;;;;;;;67.80;40.87;;;;;;;3.57;64.29;99428.75;5013073;28;20216;-59
2022/01/21 04:49:45;;;;;;;58.77;39.33;;;;;;;3.43;64.33;99446.78;5012958;28;20193;-59
2022/01/21 04:52:12;;;;;;;62.83;42.77;;;;;;;3.27;65.50;99464.69;5012738;28;20236;-59
2022/01/21 04:54:39;;;;;;;81.93;56.13;;;;;;;2.96;67.71;99464.97;5011890;28;20452;-59
2022/01/21 04:57:08;;;;;;;67.43;42.20;;;;;;;2.54;69.19;99437.63;5012817;28;20200;-59
2022/01/21 04:59:37;;;;;;;66.23;38.30;;;;;;;2.47;70.32;99474.53;5013015;28;20309;-59
2022/01/21 05:02:05;;;;;;;48.67;33.80;;;;;;;2.44;71.11;99473.50;5012865;28;20561;-59
2022/01/21 05:04:32;;;;;;;51.77;32.30;;;;;;;2.20;71.72;99461.38;5012724;28;20572;-59
2022/01/21 05:07:01;;;;;;;49.80;32.17;;;;;;;2.10;72.76;99499.75;5012520;28;20681;-58
2022/01/21 05:09:32;;;;;;;56.03;32.63;;;;;;;2.09;73.71;99497.13;5012878;28;20198;-58
2022/01/21 05:12:00;;;;;;;46.20;31.23;;;;;;;2.11;73.77;99493.03;5012871;28;20313;-58
2022/01/21 05:14:43;;;;;;;45.27;30.60;;;;;;;2.19;73.57;99497.66;5012745;28;20583;-58
2022/01/21 05:17:11;;;;;;;48.37;31.23;;;;;;;2.32;72.97;99499.13;5012313;28;20193;-59
2022/01/21 05:19:38;;;;;;;57.03;33.90;;;;;;;2.32;72.79;99506.72;5012424;28;20201;-58
2022/01/21 05:22:06;;;;;;;48.37;30.83;;;;;;;2.37;72.54;99517.97;5012372;28;20193;-58
2022/01/21 05:24:33;;;;;;;48.07;30.17;;;;;;;2.36;73.18;99518.78;5012261;28;20201;-58
2022/01/21 05:27:01;;;;;;;50.70;32.20;;;;;;;2.32;73.19;99525.34;5012077;28;20712;-58
2022/01/21 05:29:31;;;;;;;48.47;31.73;;;;;;;2.41;73.21;99537.59;5012409;28;20201;-58
2022/01/21 05:31:59;;;;;;;54.40;32.50;;;;;;;2.39;73.38;99532.44;5012030;28;20296;-59
2022/01/21 05:34:26;;;;;;;56.73;35.03;;;;;;;2.44;73.67;99545.38;5011356;28;20193;-58
2022/01/21 05:36:53;;;;;;;53.07;33.20;;;;;;;2.52;73.45;99549.13;5011307;28;20276;-58
2022/01/21 05:39:20;;;;;;;53.37;32.40;;;;;;;2.52;73.83;99555.88;5012023;28;20208;-58
2022/01/21 05:41:50;;;;;;;53.60;32.83;;;;;;;2.65;73.65;99566.69;5011677;28;20249;-59
2022/01/21 05:46:22;;;;;;;49.60;32.57;;;;;;;2.72;73.87;99566.16;5011792;28;20197;-58
2022/01/21 05:47:08;;;;;;;50.30;34.87;;;;;;;2.72;74.08;99573.78;4992270;28;20240;-59
2022/01/21 05:49:36;;;;;;;54.83;32.77;;;;;;;2.71;74.31;99576.25;4992337;28;20238;-59
2022/01/21 05:52:08;;;;;;;51.73;33.87;;;;;;;2.74;74.97;99566.25;4992129;28;20661;-58
2022/01/21 05:54:35;;;;;;;50.37;34.10;;;;;;;2.88;75.25;99588.94;4992069;28;20197;-59
2022/01/21 05:57:06;;;;;;;42.43;27.67;;;;;;;3.04;75.33;99593.09;4992297;28;20280;-59
2022/01/21 05:59:33;;;;;;;41.90;26.97;;;;;;;3.20;74.78;99600.59;4992020;28;20194;-58
2022/01/21 06:02:00;;;;;;;33.63;23.50;;;;;;;2.92;74.88;99517.25;4992066;28;20297;-59
2022/01/21 06:04:28;;;;;;;31.17;23.20;;;;;;;3.52;75.23;99614.78;4991865;28;20682;-59
2022/01/21 06:06:55;;;;;;;37.27;25.03;;;;;;;3.59;75.88;99609.19;5007079;28;20695;-60
2022/01/21 06:09:22;;;;;;;41.50;26.30;;;;;;;3.68;75.42;99623.97;5011340;28;20194;-59
2022/01/21 06:11:50;;;;;;;40.03;27.67;;;;;;;3.68;76.99;99627.38;5011197;28;20186;-60
2022/01/21 06:14:17;;;;;;;41.77;29.53;;;;;;;3.77;78.35;99622.72;5011275;28;20194;-59
2022/01/21 06:16:44;;;;;;;39.93;28.20;;;;;;;3.82;79.22;99635.63;5011348;28;20190;-59
2022/01/21 06:19:11;;;;;;;49.57;32.60;;;;;;;3.77;79.84;99635.41;5011078;28;20289;-59
2022/01/21 06:21:39;;;;;;;51.40;32.97;;;;;;;3.81;80.84;99637.31;5011152;28;20284;-59
2022/01/21 06:24:07;;;;;;;49.37;32.27;;;;;;;3.91;81.37;99638.56;5011101;28;20198;-59
2022/01/21 06:26:34;;;;;;;44.23;30.73;;;;;;;3.97;82.16;99644.81;5010641;28;20699;-59
2022/01/21 06:29:01;;;;;;;43.43;29.83;;;;;;;4.06;83.54;99654.50;5010682;28;20293;-59
2022/01/21 06:31:28;;;;;;;37.70;27.40;;;;;;;4.10;84.00;99651.28;5010746;28;20194;-59
2022/01/21 06:33:55;;;;;;;38.23;27.57;;;;;;;4.15;84.99;99660.84;5010775;28;20572;-59
2022/01/21 06:36:22;;;;;;;29.70;21.63;;;;;;;4.17;85.58;99654.16;5010905;28;20194;-59
2022/01/21 06:38:51;;;;;;;30.37;21.13;;;;;;;3.96;85.76;99607.47;5010797;28;20289;-59
2022/01/21 06:41:18;;;;;;;27.47;21.97;;;;;;;4.30;86.78;99680.13;5022124;28;20223;-59
2022/01/21 06:43:44;;;;;;;32.40;20.47;;;;;;;4.30;87.19;99683.56;5030427;28;20276;-59
2022/01/21 06:46:12;;;;;;;30.90;21.43;;;;;;;4.36;87.31;99682.94;5030019;28;20280;-59
2022/01/21 06:48:39;;;;;;;32.70;22.20;;;;;;;4.35;87.62;99683.75;5030190;28;20201;-59
2022/01/21 06:51:06;;;;;;;28.03;20.50;;;;;;;4.39;88.59;99690.72;5030178;28;20575;-59
2022/01/21 06:53:33;;;;;;;29.37;21.00;;;;;;;4.45;88.89;99689.28;5012788;28;20194;-59
2022/01/21 06:56:01;;;;;;;26.67;16.70;;;;;;;4.47;89.59;99692.78;5010791;28;20193;-60
2022/01/21 06:58:28;;;;;;;17.87;13.33;;;;;;;4.46;89.98;99695.25;5010462;28;20197;-58
2022/01/21 07:00:55;;;;;;;15.10;11.73;;;;;;;4.39;90.20;99708.53;5009842;28;20529;-58
2022/01/21 07:03:24;;;;;;;13.67;11.50;;;;;;;4.42;90.50;99704.41;5009351;28;20189;-58
2022/01/21 07:05:51;;;;;;;14.07;10.63;;;;;;;4.40;90.09;99703.50;5009605;28;20206;-58
2022/01/21 07:08:18;;;;;;;13.30;9.67;;;;;;;4.38;90.49;99706.78;5028380;28;20232;-58
2022/01/21 07:10:45;;;;;;;10.80;7.40;;;;;;;4.34;90.81;99715.09;5028099;28;20302;-59
2022/01/21 07:13:13;;;;;;;9.73;7.53;;;;;;;4.23;89.87;99722.22;5010402;28;20197;-58
2022/01/21 07:15:40;;;;;;;6.50;5.90;;;;;;;4.14;90.02;99722.69;5009066;28;20198;-59
2022/01/21 07:18:08;;;;;;;6.93;5.40;;;;;;;4.01;90.48;99725.47;5009561;28;20729;-58
2022/01/21 07:20:35;;;;;;;6.47;5.87;;;;;;;3.98;90.52;99730.41;5011079;28;20272;-58
2022/01/21 07:23:01;;;;;;;6.63;5.77;;;;;;;3.87;90.60;99733.28;5009127;28;20203;-58
2022/01/21 07:25:29;;;;;;;7.50;5.70;;;;;;;3.85;91.11;99732.31;5009323;28;20280;-60
2022/01/21 07:27:56;;;;;;;12.30;7.30;;;;;;;3.83;91.18;99749.16;5006055;28;20577;-59
2022/01/21 07:30:24;;;;;;;7.33;5.57;;;;;;;3.79;91.42;99763.41;5008986;28;20197;-59
2022/01/21 07:32:51;;;;;;;5.33;4.83;;;;;;;3.71;91.47;99764.72;5009733;28;20193;-58
2022/01/21 07:35:18;;;;;;;5.77;4.83;;;;;;;3.71;91.00;99771.50;5009566;28;20190;-59
2022/01/21 07:37:45;;;;;;;5.40;4.50;;;;;;;3.58;91.58;99763.25;5009098;28;20706;-59
2022/01/21 07:40:13;;;;;;;7.10;5.23;;;;;;;3.62;91.53;99769.38;5009378;28;20189;-58
2022/01/21 07:42:40;;;;;;;6.17;5.57;;;;;;;3.57;90.82;99781.84;5009362;28;20193;-58
2022/01/21 07:45:07;;;;;;;6.95;6.25;;;;;;;3.65;91.47;99782.22;5008200;28;20447;-59
2022/01/21 07:47:35;;;;;;;7.83;5.47;;;;;;;3.74;91.06;99782.63;5006916;28;20213;-58
2022/01/21 07:50:03;;;;;;;5.97;5.17;;;;;;;3.74;90.45;99789.38;5009889;28;21009;-58
2022/01/21 07:52:30;;;;;;;7.30;5.30;;;;;;;3.74;90.44;99782.63;5009161;28;20746;-58
2022/01/21 07:54:57;;;;;;;5.40;4.90;;;;;;;3.71;90.67;99772.31;5012857;28;20198;-58
2022/01/21 07:57:24;;;;;;;5.53;5.00;;;;;;;3.82;90.74;99781.34;5010279;28;20197;-58
2022/01/21 07:59:51;;;;;;;5.67;4.90;;;;;;;3.88;91.52;99781.63;5010037;28;20312;-59
2022/01/21 08:02:18;;;;;;;6.47;5.10;;;;;;;3.96;90.84;99782.84;5010301;28;20212;-58
2022/01/21 08:04:47;;;;;;;6.33;5.43;;;;;;;3.99;90.84;99783.00;5009984;28;20205;-59
2022/01/21 08:07:14;;;;;;;7.60;6.77;;;;;;;4.07;90.01;99776.59;5013230;28;20251;-58
2022/01/21 08:09:40;;;;;;;10.33;7.90;;;;;;;4.13;89.99;99779.44;5013626;28;20265;-58
2022/01/21 08:12:09;;;;;;;10.53;7.20;;;;;;;4.22;89.95;99783.19;5013503;28;20281;-59
2022/01/21 08:14:36;;;;;;;6.50;5.50;;;;;;;4.24;89.32;99787.53;5013792;28;20197;-58
2022/01/21 08:17:03;;;;;;;5.33;4.83;;;;;;;4.33;88.54;99784.53;5013724;28;20200;-58
2022/01/21 08:19:30;;;;;;;4.57;3.80;;;;;;;4.29;87.83;99792.81;5013557;28;20202;-58
2022/01/21 08:21:58;;;;;;;3.60;3.23;;;;;;;4.36;87.50;99797.41;5013204;28;20288;-58
2022/01/21 08:24:25;;;;;;;4.03;3.50;;;;;;;4.45;87.17;99798.69;5012185;28;20694;-58
2022/01/21 08:26:52;;;;;;;4.60;3.27;;;;;;;4.44;86.48;99798.63;5013056;28;20225;-58
2022/01/21 08:29:19;;;;;;;3.47;2.70;;;;;;;4.40;86.36;99801.81;5013318;28;20201;-59
2022/01/21 08:31:46;;;;;;;3.73;3.10;;;;;;;4.43;85.73;99807.03;5013120;28;20190;-59
2022/01/21 08:34:13;;;;;;;2.83;2.60;;;;;;;4.34;85.14;99815.13;5012698;28;20676;-58
2022/01/21 08:36:40;;;;;;;4.50;3.07;;;;;;;4.24;84.87;99833.31;5012965;28;20576;-58
2022/01/21 08:39:08;;;;;;;3.80;3.23;;;;;;;4.23;85.15;99823.09;5012876;28;20760;-58
2022/01/21 08:41:35;;;;;;;3.37;2.67;;;;;;;4.17;85.00;99829.59;5026285;28;20319;-59
2022/01/21 08:44:02;;;;;;;3.53;2.90;;;;;;;4.15;85.33;99832.88;5032023;28;20195;-58
2022/01/21 08:46:29;;;;;;;5.87;3.37;;;;;;;4.17;84.91;99838.94;5031972;28;20288;-58
2022/01/21 08:48:56;;;;;;;2.97;2.63;;;;;;;4.15;85.35;99841.38;5032599;28;20220;-58
2022/01/21 08:51:26;;;;;;;3.23;2.90;;;;;;;4.13;84.88;99848.06;5032333;28;20193;-58
2022/01/21 08:53:53;;;;;;;4.57;2.80;;;;;;;4.00;84.66;99849.97;5032434;28;20251;-58
2022/01/21 08:56:22;;;;;;;2.80;2.27;;;;;;;3.82;84.66;99842.31;5032211;28;20197;-58
2022/01/21 08:58:50;;;;;;;3.10;2.20;;;;;;;3.79;85.52;99848.94;5032302;28;20204;-57
2022/01/21 09:01:18;;;;;;;2.80;2.50;;;;;;;3.83;85.06;99861.88;5032339;28;20675;-58
2022/01/21 09:03:45;;;;;;;2.80;2.60;;;;;;;3.81;85.94;99853.31;5032484;28;20277;-58
2022/01/21 09:06:16;;;;;;;3.17;2.67;;;;;;;3.72;85.71;99860.47;5032265;28;20189;-58
2022/01/21 09:08:45;;;;;;;3.20;2.57;;;;;;;3.76;85.43;99854.75;5032151;28;20691;-58
2022/01/21 09:11:13;;;;;;;6.03;3.47;;;;;;;3.83;85.97;99864.41;5032079;28;20188;-59
2022/01/21 09:13:42;;;;;;;3.03;2.67;;;;;;;3.81;85.31;99868.56;5031663;28;20204;-60
2022/01/21 09:16:10;;;;;;;2.83;2.63;;;;;;;3.91;84.98;99868.19;5019701;28;20201;-59
2022/01/21 09:18:46;;;;;;;2.93;2.33;;;;;;;3.83;83.92;99869.50;5005991;28;20248;-59
2022/01/21 09:21:14;;;;;;;3.33;3.03;;;;;;;3.84;82.65;99867.81;5011255;28;20273;-58
2022/01/21 09:23:41;;;;;;;6.40;2.50;;;;;;;3.81;83.13;99862.59;5010220;28;20304;-59
2022/01/21 09:26:09;;;;;;;3.30;2.70;;;;;;;3.85;82.73;99839.94;5009349;28;20186;-58
2022/01/21 09:28:36;;;;;;;3.37;2.73;;;;;;;3.91;81.23;99860.56;5010826;28;20206;-59
2022/01/21 09:31:04;;;;;;;3.87;2.87;;;;;;;4.07;81.40;99857.06;5008832;28;20201;-59
2022/01/21 09:33:31;;;;;;;3.97;2.97;;;;;;;4.19;80.35;99844.94;5004488;28;20188;-59
2022/01/21 09:35:58;;;;;;;4.07;3.58;;;;;;;4.30;79.63;99845.44;5010506;28;20508;-59
2022/01/21 09:38:26;;;;;;;4.30;3.40;;;;;;;4.42;78.89;99843.47;5010959;28;20268;-56
2022/01/21 09:40:54;;;;;;;3.70;3.27;;;;;;;4.53;78.25;99842.28;5010730;28;20221;-55
2022/01/21 09:43:22;;;;;;;4.77;3.90;;;;;;;4.56;77.77;99830.56;5010998;28;20193;-54
2022/01/21 09:45:52;;;;;;;4.23;3.50;;;;;;;4.61;77.92;99823.16;5010407;28;20653;-55
2022/01/21 09:48:24;;;;;;;3.87;3.00;;;;;;;4.65;76.13;99827.56;5007149;28;20770;-55
2022/01/21 09:50:53;;;;;;;5.17;3.57;;;;;;;4.63;76.24;99822.41;5011122;28;20290;-55
2022/01/21 09:53:26;;;;;;;4.47;3.53;;;;;;;4.62;75.20;99815.56;5010794;28;20460;-55
2022/01/21 09:55:56;;;;;;;3.70;3.30;;;;;;;4.75;75.01;99804.28;5010841;28;20293;-55
2022/01/21 09:58:23;;;;;;;4.20;3.60;;;;;;;4.75;74.40;99802.56;5011128;28;20544;-55
2022/01/21 10:00:50;;;;;;;4.13;3.10;;;;;;;4.75;73.65;99789.84;5010481;28;20190;-55
2022/01/21 10:03:18;;;;;;;3.87;2.97;;;;;;;4.82;71.89;99792.66;5011203;28;20193;-55
2022/01/21 10:05:47;;;;;;;3.13;2.80;;;;;;;4.80;71.66;99800.25;5010944;28;20205;-55
2022/01/21 10:08:15;;;;;;;8.63;3.67;;;;;;;4.84;72.49;99799.56;5011476;28;20543;-55
2022/01/21 10:10:43;;;;;;;4.63;4.00;;;;;;;4.83;70.95;99790.22;5011356;28;20208;-55
2022/01/21 10:13:11;;;;;;;6.27;4.90;;;;;;;4.99;72.13;99786.63;5011436;28;20193;-55
2022/01/21 10:15:38;;;;;;;5.07;3.63;;;;;;;5.11;70.81;99777.81;5010447;28;20200;-55
2022/01/21 10:18:07;;;;;;;3.33;3.03;;;;;;;5.18;70.06;99784.94;5010157;28;20254;-55
2022/01/21 10:20:34;;;;;;;3.27;2.33;;;;;;;5.15;66.89;99783.94;5012435;28;20532;-55
2022/01/21 10:23:04;;;;;;;2.80;2.60;;;;;;;5.02;65.12;99785.09;5011463;28;20414;-56
2022/01/21 10:25:33;;;;;;;3.33;2.97;;;;;;;4.90;64.49;99756.56;5007313;28;20182;-56
2022/01/21 10:28:11;;;;;;;4.03;2.93;;;;;;;5.13;63.37;99791.53;5009273;28;20215;-56
2022/01/21 10:30:39;;;;;;;3.83;2.57;;;;;;;5.14;63.74;99795.78;5009567;28;20276;-56
2022/01/21 10:33:20;;;;;;;3.87;3.43;;;;;;;5.13;64.88;99790.66;5010207;28;20190;-56
2022/01/21 10:35:49;;;;;;;3.13;2.07;;;;;;;4.98;67.04;99780.66;5007312;28;20186;-57
2022/01/21 10:38:23;;;;;;;2.95;2.60;;;;;;;5.04;69.60;99777.50;5009305;28;20908;-58
2022/01/21 10:40:50;;;;;;;3.93;2.50;;;;;;;4.95;69.93;99782.22;5010414;28;20971;-59
2022/01/21 10:43:19;;;;;;;4.03;2.50;;;;;;;4.97;70.08;99789.09;5010531;28;20201;-59
2022/01/21 10:45:50;;;;;;;3.90;2.87;;;;;;;4.93;70.95;99782.16;5009949;28;20201;-58
2022/01/21 10:48:17;;;;;;;3.40;2.10;;;;;;;4.79;69.74;99783.22;5010431;28;20317;-59
2022/01/21 10:50:44;;;;;;;2.67;2.27;;;;;;;4.74;68.93;99777.06;5010137;28;20197;-58
2022/01/21 10:53:29;;;;;;;2.80;2.33;;;;;;;4.60;69.29;99773.94;5010389;28;20284;-58
2022/01/21 10:56:09;;;;;;;2.60;2.07;;;;;;;4.48;69.01;99769.94;5010272;28;20652;-57
2022/01/21 10:58:39;;;;;;;4.93;4.07;;;;;;;4.44;68.86;99747.75;5010415;28;20284;-57
2022/01/21 11:01:11;;;;;;;3.00;2.73;;;;;;;4.51;68.64;99768.44;5009471;28;20197;-58
2022/01/21 11:03:56;;;;;;;4.13;3.00;;;;;;;4.53;68.08;99765.97;5009377;28;20201;-59
2022/01/21 11:06:25;;;;;;;3.30;2.47;;;;;;;4.59;67.96;99766.22;5009218;28;20846;-58
2022/01/21 11:09:12;;;;;;;3.17;2.37;;;;;;;4.51;66.32;99768.44;5008818;28;20229;-59
2022/01/21 11:11:39;;;;;;;5.10;2.43;;;;;;;4.53;66.32;99771.06;5008102;28;20193;-58
2022/01/21 11:14:11;;;;;;;2.30;2.10;;;;;;;4.52;65.02;99762.56;5006616;28;20197;-58
2022/01/21 11:16:40;;;;;;;4.50;2.63;;;;;;;4.56;66.37;99756.78;5007244;28;20404;-58
2022/01/21 11:19:10;;;;;;;6.03;2.43;;;;;;;4.53;64.71;99754.09;5007277;28;20185;-58
2022/01/21 11:21:46;;;;;;;2.20;2.00;;;;;;;4.55;64.76;99761.81;5008567;28;20201;-59
2022/01/21 11:24:16;;;;;;;3.07;2.23;;;;;;;4.67;63.77;99763.19;5008845;28;20208;-58
2022/01/21 11:26:43;;;;;;;2.53;2.20;;;;;;;4.69;63.54;99760.75;5009217;28;20204;-58
2022/01/21 11:29:12;;;;;;;4.80;2.37;;;;;;;4.70;63.05;99757.38;5009911;28;20240;-58
2022/01/21 11:31:39;;;;;;;2.67;2.17;;;;;;;4.66;62.60;99746.22;5009988;28;20213;-58
2022/01/21 11:34:07;;;;;;;3.10;2.80;;;;;;;4.85;62.37;99742.78;5010101;28;20197;-58
2022/01/21 11:36:33;;;;;;;2.40;2.20;;;;;;;4.86;60.57;99744.53;5009643;28;20605;-58
2022/01/21 11:39:01;;;;;;;3.70;2.20;;;;;;;4.89;61.42;99743.78;5010856;28;20200;-58
2022/01/21 11:41:32;;;;;;;2.17;1.93;;;;;;;4.92;59.11;99741.34;5026465;28;20228;-58
2022/01/21 11:44:02;;;;;;;3.20;1.93;;;;;;;4.90;59.29;99737.88;5033590;28;20197;-58
2022/01/21 11:46:59;;;;;;;2.63;2.03;;;;;;;4.98;59.61;99739.94;5033316;28;20189;-57
2022/01/21 11:49:27;;;;;;;4.03;1.90;;;;;;;5.01;59.21;99737.53;5034023;28;20343;-59
2022/01/21 11:52:10;;;;;;;4.10;2.43;;;;;;;4.99;58.39;99741.69;5033548;28;20204;-59
2022/01/21 11:54:37;;;;;;;3.90;2.03;;;;;;;4.96;57.53;99741.56;5033464;28;20196;-59
2022/01/21 11:57:07;;;;;;;3.30;2.20;;;;;;;4.96;57.94;99735.59;5033351;28;20196;-58
2022/01/21 11:59:42;;;;;;;4.27;2.70;;;;;;;4.98;58.42;99728.88;5033489;28;20276;-59
2022/01/21 12:02:22;;;;;;;3.40;2.90;;;;;;;5.04;57.70;99714.72;5033184;28;20275;-58
2022/01/21 12:04:51;;;;;;;4.07;3.13;;;;;;;5.12;59.23;99715.91;5033588;28;20571;-57
2022/01/21 12:07:51;;;;;;;4.10;2.70;;;;;;;5.08;59.79;99716.59;5033293;28;20758;-57
2022/01/21 12:10:31;;;;;;;4.10;2.77;;;;;;;4.98;59.81;99719.56;5022013;28;20192;-57
2022/01/21 12:13:04;;;;;;;3.27;2.57;;;;;;;5.02;59.84;99728.22;5033467;28;20203;-58
2022/01/21 12:19:10;;;;;;;5.00;3.30;;;;;;;5.00;59.90;99715.41;5013425;28;20194;-59